createdAt,value
2017-08-19T00:02:03.264Z,100384.41
2017-08-19T00:04:30.703Z,100375.28
2017-08-19T00:06:58.095Z,100377.52
2017-08-19T00:09:25.486Z,100381.09
2017-08-19T00:11:53.035Z,100384.86
2017-08-19T00:14:20.431Z,100388.42
2017-08-19T00:16:47.828Z,100394.42
2017-08-19T00:19:15.475Z,100388.77
2017-08-19T00:21:42.870Z,100389.16
2017-08-19T00:24:10.263Z,100392.87
2017-08-19T00:26:37.847Z,100389.31
2017-08-19T00:29:05.243Z,100391.70
2017-08-19T00:31:32.647Z,100391.65
2017-08-19T00:34:00.072Z,100392.19
2017-08-19T00:36:27.469Z,100396.23
2017-08-19T00:38:54.874Z,100398.81
2017-08-19T00:41:22.380Z,100398.31
2017-08-19T00:43:49.783Z,100402.25
2017-08-19T00:46:17.174Z,100401.67
2017-08-19T00:48:44.586Z,100399.84
2017-08-19T00:51:11.984Z,100402.05
2017-08-19T00:53:39.379Z,100403.39
2017-08-19T00:56:06.931Z,100399.97
2017-08-19T00:58:34.333Z,100404.83
2017-08-19T01:01:01.734Z,100398.39
2017-08-19T01:03:29.141Z,100409.86
2017-08-19T01:05:56.538Z,100412.96
2017-08-19T01:08:23.936Z,100408.39
2017-08-19T01:10:51.792Z,100405.55
2017-08-19T01:13:19.186Z,100399.39
2017-08-19T01:15:46.582Z,100401.16
2017-08-19T01:18:14.006Z,100408.57
2017-08-19T01:20:41.406Z,100407.61
2017-08-19T01:23:08.802Z,100407.36
2017-08-19T01:25:48.076Z,100412.30
2017-08-19T01:28:15.470Z,100410.70
2017-08-19T01:30:42.874Z,100416.83
2017-08-19T01:33:10.426Z,100403.97
2017-08-19T01:35:38.545Z,100407.98
2017-08-19T01:38:05.946Z,100406.31
2017-08-19T01:40:33.354Z,100408.32
2017-08-19T01:43:00.746Z,100406.65
2017-08-19T01:45:28.146Z,100407.98
2017-08-19T01:47:55.570Z,100408.98
2017-08-19T01:50:22.964Z,100417.52
2017-08-19T01:52:50.359Z,100410.70
2017-08-19T01:55:17.806Z,100409.53
2017-08-19T01:57:45.203Z,100411.36
2017-08-19T02:00:12.614Z,100413.48
2017-08-19T02:02:40.166Z,100413.19
2017-08-19T02:05:07.573Z,100406.12
2017-08-19T02:07:34.957Z,100409.42
2017-08-19T02:10:02.467Z,100403.98
2017-08-19T02:12:29.867Z,100411.39
2017-08-19T02:14:57.267Z,100407.32
2017-08-19T02:17:25.004Z,100402.67
2017-08-19T02:19:52.408Z,100402.92
2017-08-19T02:22:19.802Z,100407.60
2017-08-19T02:24:47.210Z,100403.86
2017-08-19T02:27:14.607Z,100404.94
2017-08-19T02:29:42.008Z,100407.95
2017-08-19T02:32:09.412Z,100417.64
2017-08-19T02:34:36.807Z,100405.93
2017-08-19T02:37:04.202Z,100409.86
2017-08-19T02:39:31.712Z,100409.56
2017-08-19T02:41:59.108Z,100402.03
2017-08-19T02:44:26.514Z,100405.38
2017-08-19T02:46:53.966Z,100411.34
2017-08-19T02:49:21.366Z,100410.52
2017-08-19T02:51:48.758Z,100412.42
2017-08-19T02:54:16.211Z,100408.94
2017-08-19T02:56:43.610Z,100409.18
2017-08-19T02:59:11.014Z,100408.64
2017-08-19T03:01:38.523Z,100408.05
2017-08-19T03:04:05.918Z,100412.87
2017-08-19T03:06:33.326Z,100407.31
2017-08-19T03:09:00.828Z,100410.34
2017-08-19T03:11:28.235Z,100414.34
2017-08-19T03:13:55.630Z,100409.92
2017-08-19T03:16:23.139Z,100411.85
2017-08-19T03:18:50.543Z,100413.94
2017-08-19T03:21:17.931Z,100411.67
2017-08-19T03:23:45.371Z,100415.59
2017-08-19T03:26:12.770Z,100416.99
2017-08-19T03:28:40.167Z,100419.49
2017-08-19T03:31:07.720Z,100413.28
2017-08-19T03:33:35.110Z,100418.16
2017-08-19T03:36:02.511Z,100416.37
2017-08-19T03:38:30.062Z,100422.41
2017-08-19T03:40:57.458Z,100419.25
2017-08-19T03:43:24.870Z,100425.50
2017-08-19T03:45:52.378Z,100421.72
2017-08-19T03:48:19.774Z,100427.78
2017-08-19T03:50:47.174Z,100432.01
2017-08-19T03:53:14.609Z,100435.40
2017-08-19T03:55:42.006Z,100439.47
2017-08-19T03:58:09.410Z,100438.77
2017-08-19T04:00:36.959Z,100438.61
2017-08-19T04:03:04.354Z,100439.89
2017-08-19T04:05:31.746Z,100445.71
2017-08-19T04:07:59.154Z,100442.00
2017-08-19T04:10:26.548Z,100445.23
2017-08-19T04:12:53.943Z,100446.95
2017-08-19T04:15:21.496Z,100446.50
2017-08-19T04:17:48.892Z,100449.59
2017-08-19T04:20:16.285Z,100444.13
2017-08-19T04:22:43.750Z,100440.42
2017-08-19T04:25:11.148Z,100442.82
2017-08-19T04:27:38.555Z,100446.26
2017-08-19T04:30:06.166Z,100437.41
2017-08-19T04:32:33.570Z,100438.95
2017-08-19T04:35:00.971Z,100446.56
2017-08-19T04:37:28.534Z,100444.59
2017-08-19T04:39:55.938Z,100444.19
2017-08-19T04:42:23.345Z,100447.31
2017-08-19T04:44:50.767Z,100443.42
2017-08-19T04:47:18.182Z,100444.23
2017-08-19T04:49:45.575Z,100449.07
2017-08-19T04:52:13.118Z,100453.66
2017-08-19T04:54:40.520Z,100451.05
2017-08-19T04:57:07.926Z,100458.69
2017-08-19T04:59:35.346Z,100461.36
2017-08-19T05:02:02.743Z,100456.39
2017-08-19T05:04:30.152Z,100460.30
2017-08-19T05:06:57.911Z,100459.55
2017-08-19T05:09:25.310Z,100462.02
2017-08-19T05:11:52.706Z,100464.88
2017-08-19T05:14:20.255Z,100464.11
2017-08-19T05:16:47.666Z,100459.38
2017-08-19T05:19:15.055Z,100457.60
2017-08-19T05:21:42.603Z,100456.80
2017-08-19T05:24:09.994Z,100454.99
2017-08-19T05:26:37.406Z,100459.30
2017-08-19T05:29:04.913Z,100457.66
2017-08-19T05:31:32.306Z,100454.96
2017-08-19T05:33:59.703Z,100452.91
2017-08-19T05:36:27.242Z,100461.47
2017-08-19T05:38:54.638Z,100461.73
2017-08-19T05:41:22.027Z,100463.08
2017-08-19T05:43:49.466Z,100472.53
2017-08-19T05:46:16.871Z,100473.69
2017-08-19T05:48:44.266Z,100475.80
2017-08-19T05:51:11.811Z,100476.54
2017-08-19T05:53:39.204Z,100482.99
2017-08-19T05:56:06.590Z,100489.23
2017-08-19T05:58:34.436Z,100486.34
2017-08-19T06:01:01.826Z,100488.59
2017-08-19T06:03:29.224Z,100490.46
2017-08-19T06:05:56.623Z,100498.37
2017-08-19T06:08:24.010Z,100500.98
2017-08-19T06:10:51.411Z,100495.81
2017-08-19T06:13:18.958Z,100497.08
2017-08-19T06:15:46.346Z,100496.64
2017-08-19T06:18:13.731Z,100498.08
2017-08-19T06:20:41.337Z,100504.74
2017-08-19T06:23:08.732Z,100504.91
2017-08-19T06:25:36.130Z,100510.19
2017-08-19T06:28:03.628Z,100514.42
2017-08-19T06:30:31.018Z,100515.77
2017-08-19T06:32:58.406Z,100517.23
2017-08-19T06:35:26.290Z,100512.88
2017-08-19T06:37:53.688Z,100513.45
2017-08-19T06:40:21.074Z,100516.39
2017-08-19T06:42:48.870Z,100503.77
2017-08-19T06:45:16.266Z,100505.59
2017-08-19T06:47:43.671Z,100501.27
2017-08-19T06:50:11.226Z,100502.63
2017-08-19T06:52:38.614Z,100497.56
2017-08-19T06:55:06.006Z,100498.56
2017-08-19T06:57:33.432Z,100496.36
2017-08-19T07:00:00.819Z,100509.72
2017-08-19T07:02:28.209Z,100498.11
2017-08-19T07:04:55.750Z,100502.95
2017-08-19T07:07:23.134Z,100490.58
2017-08-19T07:09:50.534Z,100500.63
2017-08-19T07:12:18.075Z,100486.37
2017-08-19T07:14:45.466Z,100495.53
2017-08-19T07:17:12.867Z,100500.79
2017-08-19T07:19:40.370Z,100493.62
2017-08-19T07:22:07.765Z,100495.06
2017-08-19T07:24:35.154Z,100493.66
2017-08-19T07:27:02.583Z,100494.70
2017-08-19T07:29:29.976Z,100495.67
2017-08-19T07:31:57.371Z,100500.52
2017-08-19T07:34:24.875Z,100505.15
2017-08-19T07:36:52.266Z,100505.20
2017-08-19T07:39:19.658Z,100506.39
2017-08-19T07:41:47.062Z,100501.67
2017-08-19T07:44:14.455Z,100515.13
2017-08-19T07:46:41.855Z,100515.12
2017-08-19T07:49:09.271Z,100510.86
2017-08-19T07:51:36.672Z,100514.58
2017-08-19T07:54:04.047Z,100511.33
2017-08-19T07:56:31.567Z,100511.73
2017-08-19T07:58:58.966Z,100516.53
2017-08-19T08:01:26.354Z,100506.77
2017-08-19T08:03:53.783Z,100505.84
2017-08-19T08:06:21.182Z,100512.12
2017-08-19T08:08:48.566Z,100513.72
2017-08-19T08:11:15.982Z,100515.36
2017-08-19T08:13:43.366Z,100515.08
2017-08-19T08:16:10.762Z,100518.34
2017-08-19T08:18:38.682Z,100517.22
2017-08-19T08:21:06.074Z,100525.77
2017-08-19T08:23:33.488Z,100527.42
2017-08-19T08:26:01.055Z,100536.63
2017-08-19T08:28:28.452Z,100533.05
2017-08-19T08:30:55.843Z,100530.59
2017-08-19T08:33:23.258Z,100538.11
2017-08-19T08:35:50.650Z,100534.06
2017-08-19T08:38:18.038Z,100534.16
2017-08-19T08:40:45.735Z,100538.34
2017-08-19T08:43:13.130Z,100533.19
2017-08-19T08:45:40.523Z,100540.48
2017-08-19T08:48:07.962Z,100533.50
2017-08-19T08:50:35.351Z,100538.72
2017-08-19T08:53:02.739Z,100539.09
2017-08-19T08:55:30.542Z,100541.84
2017-08-19T08:57:57.944Z,100532.11
2017-08-19T09:00:25.332Z,100541.09
2017-08-19T09:02:52.890Z,100539.98
2017-08-19T09:05:20.288Z,100538.07
2017-08-19T09:07:47.682Z,100543.78
2017-08-19T09:10:15.496Z,100532.00
2017-08-19T09:12:42.889Z,100537.02
2017-08-19T09:15:10.283Z,100535.87
2017-08-19T09:17:37.718Z,100538.95
2017-08-19T09:20:05.111Z,100540.56
2017-08-19T09:22:32.510Z,100546.22
2017-08-19T09:25:00.019Z,100538.13
2017-08-19T09:27:27.406Z,100540.78
2017-08-19T09:29:54.794Z,100539.09
2017-08-19T09:32:22.345Z,100536.05
2017-08-19T09:34:49.758Z,100535.31
2017-08-19T09:37:17.152Z,100546.56
2017-08-19T09:39:44.618Z,100536.79
2017-08-19T09:42:12.019Z,100543.20
2017-08-19T09:44:39.409Z,100542.84
2017-08-19T09:47:06.830Z,100550.44
2017-08-19T09:49:34.227Z,100548.36
2017-08-19T09:52:01.624Z,100549.28
2017-08-19T09:54:29.326Z,100551.77
2017-08-19T09:56:56.714Z,100552.13
2017-08-19T09:59:24.106Z,100560.55
2017-08-19T10:01:51.646Z,100558.05
2017-08-19T10:04:19.034Z,100568.63
2017-08-19T10:06:46.426Z,100566.53
2017-08-19T10:09:25.599Z,100570.38
2017-08-19T10:11:52.987Z,100592.45
2017-08-19T10:14:20.374Z,100595.69
2017-08-19T10:16:47.931Z,100596.98
2017-08-19T10:19:15.315Z,100596.23
2017-08-19T10:21:42.719Z,100590.31
2017-08-19T10:24:10.158Z,100592.37
2017-08-19T10:26:37.544Z,100590.58
2017-08-19T10:29:04.931Z,100591.61
2017-08-19T10:31:32.682Z,100573.75
2017-08-19T10:34:00.076Z,100578.36
2017-08-19T10:36:27.457Z,100577.53
2017-08-19T10:38:55.222Z,100576.39
2017-08-19T10:41:22.610Z,100572.25
2017-08-19T10:43:50.011Z,100578.81
2017-08-19T10:46:17.514Z,100573.48
2017-08-19T10:48:44.898Z,100574.33
2017-08-19T10:51:12.298Z,100573.56
2017-08-19T10:53:39.743Z,100581.47
2017-08-19T10:56:07.126Z,100576.31
2017-08-19T10:58:34.516Z,100572.98
2017-08-19T11:01:02.342Z,100578.27
2017-08-19T11:03:29.726Z,100578.55
2017-08-19T11:05:57.114Z,100582.05
2017-08-19T11:08:24.666Z,100567.89
2017-08-19T11:10:52.046Z,100577.41
2017-08-19T11:13:19.442Z,100584.78
2017-08-19T11:15:46.854Z,100582.44
2017-08-19T11:18:14.267Z,100583.84
2017-08-19T11:20:41.642Z,100586.66
2017-08-19T11:23:09.067Z,100593.28
2017-08-19T11:25:37.083Z,100597.19
2017-08-19T11:28:04.495Z,100602.70
2017-08-19T11:30:32.030Z,100595.94
2017-08-19T11:32:59.424Z,100605.45
2017-08-19T11:35:26.819Z,100606.60
2017-08-19T11:37:54.234Z,100614.91
2017-08-19T11:40:21.634Z,100615.21
2017-08-19T11:42:49.023Z,100606.97
2017-08-19T11:45:16.431Z,100608.09
2017-08-19T11:47:43.821Z,100606.20
2017-08-19T11:50:11.210Z,100605.07
2017-08-19T11:52:38.610Z,100603.23
2017-08-19T11:55:06.000Z,100604.81
2017-08-19T11:57:33.395Z,100604.48
2017-08-19T12:00:01.109Z,100608.88
2017-08-19T12:02:28.503Z,100608.45
2017-08-19T12:04:55.894Z,100614.34
2017-08-19T12:07:23.693Z,100610.77
2017-08-19T12:09:51.090Z,100614.52
2017-08-19T12:12:18.483Z,100614.97
2017-08-19T12:14:45.915Z,100617.95
2017-08-19T12:17:13.301Z,100621.83
2017-08-19T12:19:40.698Z,100614.23
2017-08-19T12:22:08.642Z,100616.69
2017-08-19T12:24:36.043Z,100604.11
2017-08-19T12:27:03.427Z,100605.17
2017-08-19T12:29:30.827Z,100605.63
2017-08-19T12:31:58.213Z,100608.61
2017-08-19T12:34:25.602Z,100605.31
2017-08-19T12:36:53.178Z,100606.81
2017-08-19T12:39:20.571Z,100610.05
2017-08-19T12:41:47.962Z,100617.13
2017-08-19T12:44:15.758Z,100628.39
2017-08-19T12:46:43.142Z,100625.67
2017-08-19T12:49:10.529Z,100625.12
2017-08-19T12:51:38.092Z,100631.59
2017-08-19T12:54:05.484Z,100627.69
2017-08-19T12:56:32.878Z,100630.84
2017-08-19T12:59:00.500Z,100622.11
2017-08-19T13:01:27.882Z,100625.74
2017-08-19T13:03:55.278Z,100623.20
2017-08-19T13:06:22.706Z,100625.84
2017-08-19T13:08:50.093Z,100622.23
2017-08-19T13:11:17.495Z,100622.38
2017-08-19T13:13:45.046Z,100626.44
2017-08-19T13:16:12.426Z,100620.09
2017-08-19T13:18:39.810Z,100620.48
2017-08-19T13:21:07.412Z,100625.14
2017-08-19T13:23:34.803Z,100616.04
2017-08-19T13:26:02.186Z,100617.77
2017-08-19T13:28:29.687Z,100614.93
2017-08-19T13:30:57.128Z,100615.89
2017-08-19T13:33:24.498Z,100617.53
2017-08-19T13:35:51.899Z,100619.44
2017-08-19T13:38:19.299Z,100617.41
2017-08-19T13:40:46.699Z,100613.59
2017-08-19T13:43:14.199Z,100611.45
2017-08-19T13:45:41.583Z,100623.38
2017-08-19T13:48:08.967Z,100614.69
2017-08-19T13:50:36.374Z,100627.27
2017-08-19T13:53:03.762Z,100619.80
2017-08-19T13:55:31.158Z,100616.92
2017-08-19T13:57:58.659Z,100615.05
2017-08-19T14:00:26.049Z,100612.98
2017-08-19T14:02:53.442Z,100614.30
2017-08-19T14:05:21.234Z,100615.89
2017-08-19T14:07:48.639Z,100616.05
2017-08-19T14:10:16.019Z,100612.48
2017-08-19T14:12:43.418Z,100613.97
2017-08-19T14:15:10.807Z,100615.68
2017-08-19T14:17:38.190Z,100615.05
2017-08-19T14:20:05.978Z,100618.44
2017-08-19T14:22:33.367Z,100616.55
2017-08-19T14:25:00.754Z,100619.64
2017-08-19T14:27:28.294Z,100623.02
2017-08-19T14:29:56.544Z,100620.83
2017-08-19T14:32:23.960Z,100618.59
2017-08-19T14:34:51.358Z,100617.36
2017-08-19T14:37:18.746Z,100620.77
2017-08-19T14:39:46.135Z,100624.13
2017-08-19T14:42:13.535Z,100625.45
2017-08-19T14:44:40.933Z,100636.05
2017-08-19T14:47:08.326Z,100646.23
2017-08-19T14:49:35.730Z,100647.14
2017-08-19T14:52:03.131Z,100657.45
2017-08-19T14:54:30.524Z,100651.74
2017-08-19T14:56:57.943Z,100656.81
2017-08-19T14:59:25.339Z,100654.61
2017-08-19T15:01:52.738Z,100662.67
2017-08-19T15:04:20.626Z,100671.56
2017-08-19T15:06:48.025Z,100687.20
2017-08-19T15:09:15.418Z,100708.89
2017-08-19T15:11:42.926Z,100712.45
2017-08-19T15:14:10.323Z,100722.07
2017-08-19T15:16:37.724Z,100727.42
2017-08-19T15:19:05.122Z,100731.13
2017-08-19T15:21:32.539Z,100724.42
2017-08-19T15:23:59.930Z,100726.59
2017-08-19T15:26:27.490Z,100749.23
2017-08-19T15:28:54.901Z,100746.12
2017-08-19T15:31:22.306Z,100752.84
2017-08-19T15:33:49.810Z,100755.91
2017-08-19T15:36:17.210Z,100754.83
2017-08-19T15:38:44.614Z,100758.80
2017-08-19T15:41:12.167Z,100760.55
2017-08-19T15:43:39.562Z,100760.58
2017-08-19T15:46:06.968Z,100755.08
2017-08-19T15:48:34.514Z,100750.88
2017-08-19T15:51:01.910Z,100745.16
2017-08-19T15:53:29.311Z,100743.65
2017-08-19T15:55:56.866Z,100738.87
2017-08-19T15:58:24.262Z,100744.20
2017-08-19T16:00:51.659Z,100746.23
2017-08-19T16:03:19.214Z,100741.79
2017-08-19T16:05:46.626Z,100735.82
2017-08-19T16:08:14.020Z,100735.13
2017-08-19T16:10:41.571Z,100725.97
2017-08-19T16:13:08.969Z,100729.38
2017-08-19T16:15:36.375Z,100719.19
2017-08-19T16:18:03.974Z,100720.85
2017-08-19T16:20:31.365Z,100719.45
2017-08-19T16:22:58.759Z,100716.45
2017-08-19T16:25:26.158Z,100719.40
2017-08-19T16:27:53.563Z,100726.48
2017-08-19T16:30:20.955Z,100728.41
2017-08-19T16:32:48.691Z,100729.46
2017-08-19T16:35:16.087Z,100726.20
2017-08-19T16:37:43.502Z,100725.33
2017-08-19T16:40:10.947Z,100726.67
2017-08-19T16:42:38.347Z,100730.37
2017-08-19T16:45:05.744Z,100736.27
2017-08-19T16:47:33.163Z,100729.98
2017-08-19T16:50:00.556Z,100723.62
2017-08-19T16:52:27.950Z,100724.59
2017-08-19T16:54:55.508Z,100729.10
2017-08-19T16:57:22.908Z,100724.00
2017-08-19T16:59:50.307Z,100723.79
2017-08-19T17:02:17.735Z,100724.78
2017-08-19T17:04:45.122Z,100725.06
2017-08-19T17:07:12.525Z,100723.14
2017-08-19T17:09:40.136Z,100726.64
2017-08-19T17:12:07.530Z,100731.45
2017-08-19T17:14:34.926Z,100722.99
2017-08-19T17:17:02.430Z,100724.91
2017-08-19T17:19:29.829Z,100728.67
2017-08-19T17:21:57.218Z,100734.85
2017-08-19T17:24:24.624Z,100738.80
2017-08-19T17:26:52.018Z,100748.16
2017-08-19T17:29:19.413Z,100749.44
2017-08-19T17:31:47.251Z,100747.94
2017-08-19T17:34:14.634Z,100746.02
2017-08-19T17:36:42.026Z,100748.45
2017-08-19T17:39:09.435Z,100746.30
2017-08-19T17:41:36.823Z,100746.20
2017-08-19T17:44:04.214Z,100753.09
2017-08-19T17:46:31.786Z,100754.76
2017-08-19T17:48:59.180Z,100755.02
2017-08-19T17:51:26.591Z,100760.77
2017-08-19T17:53:54.030Z,100759.80
2017-08-19T17:56:21.436Z,100762.31
2017-08-19T17:58:48.832Z,100761.85
2017-08-19T18:01:16.740Z,100767.45
2017-08-19T18:03:44.134Z,100776.87
2017-08-19T18:06:11.533Z,100781.52
2017-08-19T18:08:39.113Z,100785.59
2017-08-19T18:11:06.508Z,100785.95
2017-08-19T18:13:33.902Z,100783.72
2017-08-19T18:16:01.323Z,100779.05
2017-08-19T18:18:28.715Z,100785.66
2017-08-19T18:20:56.111Z,100788.36
2017-08-19T18:23:23.658Z,100789.16
2017-08-19T18:25:51.055Z,100782.66
2017-08-19T18:28:18.452Z,100780.16
2017-08-19T18:30:46.210Z,100787.80
2017-08-19T18:33:13.613Z,100783.63
2017-08-19T18:35:41.011Z,100789.64
2017-08-19T18:38:08.599Z,100798.93
2017-08-19T18:40:36.000Z,100801.75
2017-08-19T18:43:03.400Z,100804.73
2017-08-19T18:45:30.814Z,100807.30
2017-08-19T18:47:58.211Z,100811.33
2017-08-19T18:50:25.615Z,100812.52
2017-08-19T18:52:53.042Z,100810.39
2017-08-19T18:55:20.435Z,100813.37
2017-08-19T18:57:47.830Z,100812.56
2017-08-19T19:00:15.378Z,100809.53
2017-08-19T19:02:42.766Z,100815.12
2017-08-19T19:05:10.172Z,100811.05
2017-08-19T19:07:37.683Z,100817.45
2017-08-19T19:10:05.089Z,100822.60
2017-08-19T19:12:32.490Z,100819.41
2017-08-19T19:15:00.014Z,100818.33
2017-08-19T19:17:27.414Z,100822.25
2017-08-19T19:19:54.814Z,100822.94
2017-08-19T19:22:22.363Z,100829.72
2017-08-19T19:24:49.770Z,100825.16
2017-08-19T19:27:17.172Z,100834.63
2017-08-19T19:29:44.594Z,100830.25
2017-08-19T19:32:11.994Z,100837.60
2017-08-19T19:34:39.386Z,100843.58
2017-08-19T19:37:06.803Z,100845.67
2017-08-19T19:39:34.194Z,100839.50
2017-08-19T19:42:01.591Z,100843.95
2017-08-19T19:44:29.008Z,100848.61
2017-08-19T19:46:56.403Z,100842.98
2017-08-19T19:49:23.804Z,100842.48
2017-08-19T19:51:51.311Z,100846.04
2017-08-19T19:54:18.719Z,100842.97
2017-08-19T19:56:46.114Z,100849.02
2017-08-19T19:59:13.667Z,100844.64
2017-08-19T20:01:41.062Z,100850.76
2017-08-19T20:04:08.457Z,100855.30
2017-08-19T20:06:36.250Z,100851.27
2017-08-19T20:09:03.647Z,100856.47
2017-08-19T20:11:31.042Z,100852.64
2017-08-19T20:13:58.451Z,100856.38
2017-08-19T20:16:25.847Z,100864.94
2017-08-19T20:18:53.243Z,100861.28
2017-08-19T20:21:20.994Z,100864.14
2017-08-19T20:23:48.390Z,100863.45
2017-08-19T20:26:15.791Z,100868.23
2017-08-19T20:28:43.218Z,100865.08
2017-08-19T20:31:10.610Z,100862.72
2017-08-19T20:33:38.007Z,100856.22
2017-08-19T20:36:05.744Z,100862.22
2017-08-19T20:38:33.139Z,100857.30
2017-08-19T20:41:00.545Z,100856.52
2017-08-19T20:43:28.095Z,100859.74
2017-08-19T20:45:55.490Z,100859.59
2017-08-19T20:48:22.886Z,100862.30
2017-08-19T20:50:50.663Z,100861.66
2017-08-19T20:53:18.070Z,100859.57
2017-08-19T20:55:45.482Z,100865.39
2017-08-19T20:58:12.926Z,100867.81
2017-08-19T21:00:40.332Z,100866.77
2017-08-19T21:03:07.738Z,100871.48
2017-08-19T21:05:35.287Z,100867.08
2017-08-19T21:08:02.694Z,100871.75
2017-08-19T21:10:30.088Z,100865.09
2017-08-19T21:12:57.530Z,100865.89
2017-08-19T21:15:24.926Z,100865.89
2017-08-19T21:17:52.326Z,100873.03
2017-08-19T21:20:19.730Z,100866.70
2017-08-19T21:22:47.121Z,100871.99
2017-08-19T21:25:14.534Z,100878.50
2017-08-19T21:27:42.042Z,100887.23
2017-08-19T21:30:09.447Z,100887.41
2017-08-19T21:32:36.844Z,100890.09
2017-08-19T21:35:04.254Z,100885.85
2017-08-19T21:37:31.654Z,100882.88
2017-08-19T21:39:59.054Z,100879.30
2017-08-19T21:42:26.474Z,100877.45
2017-08-19T21:44:53.879Z,100880.73
2017-08-19T21:47:21.277Z,100881.31
2017-08-19T21:49:48.782Z,100887.19
2017-08-19T21:52:16.178Z,100882.36
2017-08-19T21:54:43.574Z,100882.31
2017-08-19T21:57:10.983Z,100886.00
2017-08-19T21:59:38.401Z,100880.91
2017-08-19T22:02:05.794Z,100879.67
2017-08-19T22:04:33.239Z,100880.91
2017-08-19T22:07:00.634Z,100878.92
2017-08-19T22:09:28.042Z,100876.09
2017-08-19T22:11:55.463Z,100873.20
2017-08-19T22:14:22.858Z,100865.52
2017-08-19T22:16:50.252Z,100870.44
2017-08-19T22:19:17.798Z,100871.63
2017-08-19T22:21:45.195Z,100872.88
2017-08-19T22:24:12.590Z,100871.95
2017-08-19T22:26:40.098Z,100878.22
2017-08-19T22:29:07.490Z,100879.56
2017-08-19T22:31:34.890Z,100877.71
2017-08-19T22:34:02.411Z,100880.63
2017-08-19T22:36:32.586Z,100876.16
2017-08-19T22:39:00.007Z,100881.25
2017-08-19T22:41:27.750Z,100884.11
2017-08-19T22:43:55.154Z,100876.84
2017-08-19T22:46:22.549Z,100881.69
2017-08-19T22:48:50.299Z,100888.63
2017-08-19T22:51:17.698Z,100888.52
2017-08-19T22:53:45.102Z,100887.38
2017-08-19T22:56:12.551Z,100888.72
2017-08-19T22:58:39.961Z,100888.27
2017-08-19T23:01:07.347Z,100889.85
2017-08-19T23:03:35.106Z,100894.52
2017-08-19T23:06:02.503Z,100885.48
2017-08-19T23:08:29.906Z,100887.77
2017-08-19T23:10:57.351Z,100886.09
2017-08-19T23:13:24.741Z,100885.09
2017-08-19T23:15:52.146Z,100891.41
2017-08-19T23:18:19.590Z,100890.32
2017-08-19T23:20:46.987Z,100889.08
2017-08-19T23:23:14.385Z,100891.09
2017-08-19T23:25:41.950Z,100890.58
2017-08-19T23:28:09.364Z,100892.44
2017-08-19T23:30:36.763Z,100896.27
2017-08-19T23:33:04.318Z,100893.80
2017-08-19T23:35:31.720Z,100898.45
2017-08-19T23:37:59.118Z,100895.14
2017-08-19T23:40:26.535Z,100893.42
2017-08-19T23:42:53.938Z,100891.17
2017-08-19T23:45:21.324Z,100895.08
2017-08-19T23:47:48.800Z,100893.23
2017-08-19T23:50:16.208Z,100898.91
2017-08-19T23:52:43.603Z,100905.01
2017-08-19T23:55:11.026Z,100910.03
2017-08-19T23:57:38.434Z,100906.56
